createdAt,value
2022-10-26T00:00:50.859Z,77.83
2022-10-26T00:03:18.010Z,77.55
2022-10-26T00:05:44.961Z,77.12
2022-10-26T00:08:11.753Z,76.69
2022-10-26T00:10:39.165Z,76.45
2022-10-26T00:13:09.743Z,76.17
2022-10-26T00:15:40.167Z,76.07
2022-10-26T00:18:06.772Z,75.87
2022-10-26T00:20:33.344Z,75.69
2022-10-26T00:22:59.910Z,75.81
2022-10-26T00:25:26.414Z,75.63
2022-10-26T00:27:53.138Z,75.87
2022-10-26T00:30:19.686Z,75.84
2022-10-26T00:32:46.284Z,76.18
2022-10-26T00:35:23.055Z,76.10
2022-10-26T00:37:59.877Z,75.83
2022-10-26T00:40:30.035Z,75.75
2022-10-26T00:42:56.733Z,75.99
2022-10-26T00:45:29.154Z,76.56
2022-10-26T00:48:02.951Z,76.87
2022-10-26T00:50:36.766Z,76.92
2022-10-26T00:53:06.391Z,76.62
2022-10-26T00:55:37.452Z,76.49
2022-10-26T00:58:07.168Z,76.74
2022-10-26T01:00:33.756Z,76.70
2022-10-26T01:03:04.422Z,76.86
2022-10-26T01:05:32.157Z,76.59
2022-10-26T01:07:58.817Z,76.48
2022-10-26T01:10:26.461Z,76.60
2022-10-26T01:12:54.537Z,76.55
2022-10-26T01:15:25.107Z,76.81
2022-10-26T01:18:02.461Z,76.55
2022-10-26T01:20:42.794Z,77.33
2022-10-26T01:23:16.239Z,77.13
2022-10-26T01:26:13.370Z,76.79
2022-10-26T01:29:19.926Z,76.77
2022-10-26T01:31:59.934Z,76.97
2022-10-26T01:34:36.130Z,76.90
2022-10-26T01:37:11.996Z,77.65
2022-10-26T01:39:44.935Z,77.83
2022-10-26T01:42:15.572Z,77.56
2022-10-26T01:45:03.446Z,77.55
2022-10-26T01:47:33.714Z,76.92
2022-10-26T01:50:02.333Z,76.76
2022-10-26T01:52:29.140Z,77.28
2022-10-26T01:55:03.344Z,77.03
2022-10-26T01:57:35.284Z,77.14
2022-10-26T02:00:11.871Z,79.19
2022-10-26T02:03:01.797Z,80.25
2022-10-26T02:05:51.209Z,81.08
2022-10-26T02:08:31.248Z,82.28
2022-10-26T02:11:06.907Z,82.28
2022-10-26T02:13:48.341Z,82.44
2022-10-26T02:16:28.889Z,83.05
2022-10-26T02:19:06.152Z,82.37
2022-10-26T02:21:39.438Z,81.97
2022-10-26T02:24:10.417Z,82.60
2022-10-26T02:26:40.987Z,82.78
2022-10-26T02:29:11.387Z,83.36
2022-10-26T02:31:39.293Z,83.01
2022-10-26T02:34:09.551Z,82.71
2022-10-26T02:36:41.542Z,81.64
2022-10-26T02:39:10.090Z,80.77
2022-10-26T02:41:39.767Z,80.55
2022-10-26T02:44:14.509Z,80.14
2022-10-26T02:46:42.229Z,79.72
2022-10-26T02:49:08.805Z,79.54
2022-10-26T02:51:43.877Z,79.66
2022-10-26T02:54:13.436Z,80.19
2022-10-26T02:56:54.321Z,79.70
2022-10-26T02:59:24.861Z,79.88
2022-10-26T03:01:52.793Z,79.61
2022-10-26T03:04:19.727Z,79.30
2022-10-26T03:06:54.183Z,78.94
2022-10-26T03:09:23.492Z,79.32
2022-10-26T03:11:52.502Z,78.79
2022-10-26T03:14:19.333Z,78.03
2022-10-26T03:16:46.022Z,77.58
2022-10-26T03:19:12.777Z,77.88
2022-10-26T03:21:39.326Z,77.63
2022-10-26T03:24:06.445Z,78.09
2022-10-26T03:26:33.001Z,78.27
2022-10-26T03:28:59.639Z,78.01
2022-10-26T03:31:26.331Z,78.14
2022-10-26T03:33:52.845Z,78.22
2022-10-26T03:36:19.440Z,78.05
2022-10-26T03:38:45.999Z,77.61
2022-10-26T03:41:12.592Z,77.79
2022-10-26T03:43:39.090Z,77.48
2022-10-26T03:46:05.771Z,77.72
2022-10-26T03:48:32.267Z,77.99
2022-10-26T03:50:59.195Z,77.98
2022-10-26T03:53:26.400Z,77.75
2022-10-26T03:55:52.960Z,77.53
2022-10-26T03:58:19.511Z,77.51
2022-10-26T04:00:47.527Z,77.42
2022-10-26T04:03:14.052Z,77.57
2022-10-26T04:05:40.623Z,77.65
2022-10-26T04:08:08.356Z,77.53
2022-10-26T04:10:34.990Z,77.58
2022-10-26T04:13:01.538Z,77.55
2022-10-26T04:15:28.830Z,77.74
2022-10-26T04:17:57.067Z,77.88
2022-10-26T04:20:24.355Z,78.34
2022-10-26T04:23:01.445Z,78.55
2022-10-26T04:25:31.796Z,78.75
2022-10-26T04:28:00.943Z,79.14
2022-10-26T04:30:27.855Z,78.91
2022-10-26T04:32:54.425Z,79.74
2022-10-26T04:35:21.242Z,79.66
2022-10-26T04:37:47.964Z,79.74
2022-10-26T04:40:14.664Z,80.45
2022-10-26T04:42:45.491Z,80.32
2022-10-26T04:45:14.393Z,80.46
2022-10-26T04:47:41.565Z,80.69
2022-10-26T04:50:09.722Z,81.09
2022-10-26T04:52:36.920Z,80.47
2022-10-26T04:55:04.307Z,80.53
2022-10-26T04:57:30.822Z,80.13
2022-10-26T04:59:57.474Z,80.54
2022-10-26T05:02:24.057Z,80.00
2022-10-26T05:04:50.768Z,80.15
2022-10-26T05:07:17.345Z,80.48
2022-10-26T05:09:43.990Z,80.13
2022-10-26T05:12:10.548Z,79.89
2022-10-26T05:14:37.171Z,79.77
2022-10-26T05:17:03.733Z,79.87
2022-10-26T05:19:30.373Z,79.60
2022-10-26T05:21:58.319Z,80.00
2022-10-26T05:24:24.936Z,79.80
2022-10-26T05:26:51.478Z,79.87
2022-10-26T05:29:18.091Z,79.84
2022-10-26T05:31:44.602Z,79.21
2022-10-26T05:34:11.187Z,79.78
2022-10-26T05:36:37.830Z,79.50
2022-10-26T05:39:04.615Z,79.47
2022-10-26T05:41:31.124Z,79.63
2022-10-26T05:43:57.797Z,79.54
2022-10-26T05:46:24.291Z,79.77
2022-10-26T05:48:50.883Z,79.97
2022-10-26T05:51:17.437Z,79.68
2022-10-26T05:53:44.106Z,79.51
2022-10-26T05:56:19.294Z,79.45
2022-10-26T05:58:47.059Z,79.27
2022-10-26T06:01:31.521Z,79.48
2022-10-26T06:04:17.670Z,79.88
2022-10-26T06:06:47.855Z,79.95
2022-10-26T06:09:15.185Z,79.86
2022-10-26T06:11:42.170Z,78.95
2022-10-26T06:14:09.966Z,79.40
2022-10-26T06:16:54.487Z,79.49
2022-10-26T06:19:39.267Z,79.86
2022-10-26T06:22:08.910Z,81.19
2022-10-26T06:25:02.759Z,80.25
2022-10-26T06:27:46.146Z,81.21
2022-10-26T06:30:12.849Z,81.10
2022-10-26T06:32:43.546Z,81.09
2022-10-26T06:35:21.944Z,81.02
2022-10-26T06:37:49.945Z,80.81
2022-10-26T06:40:18.078Z,80.49
2022-10-26T06:42:45.443Z,80.56
2022-10-26T06:45:16.548Z,80.54
2022-10-26T06:48:00.491Z,80.64
2022-10-26T06:50:37.364Z,80.59
2022-10-26T06:53:25.879Z,80.47
2022-10-26T06:55:52.944Z,80.28
2022-10-26T06:58:27.725Z,80.50
2022-10-26T07:00:55.841Z,80.92
2022-10-26T07:03:22.556Z,81.05
2022-10-26T07:05:49.742Z,80.99
2022-10-26T07:08:16.298Z,81.10
2022-10-26T07:10:42.918Z,81.03
2022-10-26T07:13:10.754Z,80.83
2022-10-26T07:15:39.189Z,81.98
2022-10-26T07:18:07.347Z,82.99
2022-10-26T07:20:39.200Z,83.31
2022-10-26T07:23:07.003Z,82.79
2022-10-26T07:25:35.438Z,82.88
2022-10-26T07:28:02.438Z,82.95
2022-10-26T07:30:29.728Z,82.66
2022-10-26T07:33:13.202Z,82.60
2022-10-26T07:35:40.616Z,82.06
2022-10-26T07:38:07.725Z,81.46
2022-10-26T07:40:34.463Z,81.78
2022-10-26T07:43:01.075Z,81.46
2022-10-26T07:45:28.826Z,81.61
2022-10-26T07:47:55.869Z,81.69
2022-10-26T07:50:23.069Z,81.57
2022-10-26T07:52:50.002Z,81.46
2022-10-26T07:55:17.034Z,81.08
2022-10-26T07:57:43.535Z,81.31
2022-10-26T08:00:11.038Z,81.20
2022-10-26T08:02:37.611Z,81.53
2022-10-26T08:05:07.818Z,82.59
2022-10-26T08:07:40.123Z,82.88
2022-10-26T08:10:07.107Z,82.65
2022-10-26T08:12:33.625Z,83.32
2022-10-26T08:15:00.262Z,82.89
2022-10-26T08:17:28.144Z,82.77
2022-10-26T08:19:54.737Z,81.94
2022-10-26T08:22:21.276Z,81.65
2022-10-26T08:24:47.881Z,81.17
2022-10-26T08:27:15.057Z,81.71
2022-10-26T08:29:42.482Z,81.71
2022-10-26T08:32:09.148Z,81.79
2022-10-26T08:34:35.721Z,82.12
2022-10-26T08:37:02.312Z,82.40
2022-10-26T08:39:28.940Z,83.06
2022-10-26T08:42:03.481Z,82.35
2022-10-26T08:44:40.308Z,81.58
2022-10-26T08:47:21.965Z,81.39
2022-10-26T08:49:51.744Z,81.08
2022-10-26T08:52:24.880Z,80.74
2022-10-26T08:54:57.494Z,81.21
2022-10-26T08:57:39.252Z,81.16
2022-10-26T09:00:11.536Z,81.01
2022-10-26T09:02:38.159Z,80.50
2022-10-26T09:05:15.567Z,80.29
2022-10-26T09:07:54.496Z,80.61
2022-10-26T09:10:39.252Z,81.91
2022-10-26T09:13:23.565Z,82.26
2022-10-26T09:16:14.383Z,82.22
2022-10-26T09:18:57.810Z,81.99
2022-10-26T09:21:32.885Z,82.28
2022-10-26T09:24:06.888Z,81.20
2022-10-26T09:26:53.907Z,81.60
2022-10-26T09:29:26.853Z,81.43
2022-10-26T09:31:57.377Z,80.03
2022-10-26T09:34:41.046Z,79.47
2022-10-26T09:37:19.967Z,80.28
2022-10-26T09:40:05.129Z,80.98
2022-10-26T09:42:44.919Z,81.93
2022-10-26T09:45:32.720Z,81.81
2022-10-26T09:48:19.550Z,80.95
2022-10-26T09:50:49.343Z,79.34
2022-10-26T09:53:16.253Z,79.01
2022-10-26T09:55:46.537Z,79.33
2022-10-26T09:58:17.543Z,79.85
2022-10-26T10:00:45.001Z,79.94
2022-10-26T10:03:26.291Z,79.22
2022-10-26T10:05:53.526Z,78.60
2022-10-26T10:08:19.993Z,79.50
2022-10-26T10:11:15.830Z,78.94
2022-10-26T10:13:44.672Z,79.09
2022-10-26T10:16:22.837Z,78.67
2022-10-26T10:18:59.941Z,77.96
2022-10-26T10:21:44.343Z,78.59
2022-10-26T10:24:41.241Z,78.90
2022-10-26T10:27:13.754Z,78.05
2022-10-26T10:29:42.650Z,77.68
2022-10-26T10:32:16.440Z,81.65
2022-10-26T10:34:43.633Z,81.05
2022-10-26T10:37:39.786Z,80.38
2022-10-26T10:40:18.886Z,80.71
2022-10-26T10:42:47.702Z,80.29
2022-10-26T10:45:24.074Z,80.11
2022-10-26T10:48:02.662Z,79.61
2022-10-26T10:50:30.192Z,78.58
2022-10-26T10:53:16.303Z,78.56
2022-10-26T10:55:52.686Z,77.67
2022-10-26T10:58:27.873Z,76.78
2022-10-26T11:00:56.362Z,76.56
2022-10-26T11:03:41.528Z,75.86
2022-10-26T11:06:18.856Z,75.58
2022-10-26T11:09:14.009Z,74.11
2022-10-26T11:11:52.775Z,74.49
2022-10-26T11:14:32.946Z,74.52
2022-10-26T11:17:20.273Z,74.24
2022-10-26T11:20:03.987Z,73.70
2022-10-26T11:22:36.487Z,73.07
2022-10-26T11:25:03.028Z,72.33
2022-10-26T11:27:37.852Z,72.77
2022-10-26T11:30:17.842Z,72.79
2022-10-26T11:32:51.391Z,72.79
2022-10-26T11:35:24.128Z,72.47
2022-10-26T11:38:16.077Z,72.13
2022-10-26T11:40:47.543Z,72.35
2022-10-26T11:43:35.594Z,72.63
2022-10-26T11:46:20.491Z,72.31
2022-10-26T11:49:02.139Z,71.60
2022-10-26T11:51:28.947Z,71.75
2022-10-26T11:53:58.029Z,72.46
2022-10-26T11:56:39.114Z,71.58
2022-10-26T11:59:10.356Z,72.45
2022-10-26T12:01:37.033Z,71.26
2022-10-26T12:04:04.055Z,70.68
2022-10-26T12:06:32.944Z,70.20
2022-10-26T12:09:16.907Z,71.32
2022-10-26T12:11:53.124Z,72.52
2022-10-26T12:14:28.195Z,71.64
2022-10-26T12:17:13.300Z,70.67
2022-10-26T12:20:02.959Z,70.27
2022-10-26T12:22:34.515Z,68.37
2022-10-26T12:25:15.189Z,69.28
2022-10-26T12:27:43.547Z,69.13
2022-10-26T12:30:18.920Z,68.77
2022-10-26T12:32:45.451Z,68.50
2022-10-26T12:35:40.702Z,69.00
2022-10-26T12:38:29.018Z,68.60
2022-10-26T12:41:05.777Z,68.48
2022-10-26T12:43:37.092Z,69.53
2022-10-26T12:46:12.924Z,68.97
2022-10-26T12:48:41.927Z,69.18
2022-10-26T12:51:20.843Z,68.62
2022-10-26T12:54:04.360Z,68.35
2022-10-26T12:56:36.327Z,68.84
2022-10-26T12:59:38.227Z,68.48
2022-10-26T13:02:10.837Z,67.88
2022-10-26T13:05:23.956Z,67.71
2022-10-26T13:07:51.398Z,66.49
2022-10-26T13:10:25.407Z,67.57
2022-10-26T13:12:58.191Z,67.17
2022-10-26T13:15:29.942Z,67.10
2022-10-26T13:18:01.224Z,67.17
2022-10-26T13:20:31.031Z,68.24
2022-10-26T13:22:58.181Z,67.83
2022-10-26T13:25:28.497Z,67.57
2022-10-26T13:28:01.325Z,67.44
2022-10-26T13:30:33.851Z,66.61
2022-10-26T13:33:02.657Z,67.26
2022-10-26T13:35:31.888Z,67.92
2022-10-26T13:38:07.274Z,67.57
2022-10-26T13:40:37.870Z,67.61
2022-10-26T13:43:10.798Z,67.30
2022-10-26T13:45:49.342Z,66.39
2022-10-26T13:48:27.756Z,66.90
2022-10-26T13:53:47.941Z,66.75
2022-10-26T13:57:01.295Z,66.87
2022-10-26T13:59:30.413Z,66.66
2022-10-26T14:02:07.555Z,67.38
2022-10-26T14:04:34.221Z,66.55
2022-10-26T14:07:00.790Z,67.09
2022-10-26T14:09:29.356Z,66.59
2022-10-26T14:11:59.113Z,66.42
2022-10-26T14:14:30.864Z,68.18
2022-10-26T14:16:58.708Z,68.31
2022-10-26T14:19:35.819Z,68.90
2022-10-26T14:22:03.547Z,68.60
2022-10-26T14:24:46.662Z,69.40
2022-10-26T14:27:18.279Z,69.95
2022-10-26T14:29:49.976Z,69.00
2022-10-26T14:32:28.140Z,68.28
2022-10-26T14:34:55.626Z,69.18
2022-10-26T14:37:31.380Z,69.25
2022-10-26T14:39:58.134Z,69.11
2022-10-26T14:42:30.492Z,69.55
2022-10-26T14:44:58.488Z,69.34
2022-10-26T14:47:30.803Z,70.20
2022-10-26T14:52:31.522Z,70.83
2022-10-26T14:55:04.824Z,70.34
2022-10-26T14:57:34.296Z,70.39
2022-10-26T15:00:06.013Z,70.00
2022-10-26T15:02:33.031Z,70.38
2022-10-26T15:05:02.297Z,70.82
2022-10-26T15:07:36.830Z,71.55
2022-10-26T15:10:04.997Z,71.25
2022-10-26T15:12:39.042Z,70.36
2022-10-26T15:15:14.970Z,70.77
2022-10-26T15:17:43.669Z,70.36
2022-10-26T15:20:19.407Z,70.29
2022-10-26T15:22:52.309Z,69.98
2022-10-26T15:25:22.516Z,70.23
2022-10-26T15:27:49.700Z,70.20
2022-10-26T15:30:18.895Z,70.00
2022-10-26T15:32:46.154Z,70.15
2022-10-26T15:35:18.632Z,69.63
2022-10-26T15:37:47.901Z,69.32
2022-10-26T15:40:14.935Z,70.08
2022-10-26T15:42:42.903Z,70.53
2022-10-26T15:45:22.931Z,70.13
2022-10-26T15:47:51.667Z,70.31
2022-10-26T15:50:21.409Z,70.37
2022-10-26T15:52:49.429Z,71.59
2022-10-26T15:55:17.469Z,71.57
2022-10-26T15:57:44.327Z,71.59
2022-10-26T16:00:15.726Z,71.68
2022-10-26T16:02:43.744Z,71.51
2022-10-26T16:05:11.667Z,71.83
2022-10-26T16:07:39.891Z,72.25
2022-10-26T16:10:06.739Z,72.20
2022-10-26T16:12:33.320Z,71.81
2022-10-26T16:15:05.657Z,71.77
2022-10-26T16:17:32.845Z,71.17
2022-10-26T16:19:59.409Z,72.04
2022-10-26T16:22:26.053Z,71.92
2022-10-26T16:24:52.554Z,72.41
2022-10-26T16:27:19.130Z,73.00
2022-10-26T16:29:45.726Z,72.87
2022-10-26T16:32:12.258Z,72.78
2022-10-26T16:34:39.690Z,74.24
2022-10-26T16:37:06.410Z,73.55
2022-10-26T16:39:32.916Z,74.16
2022-10-26T16:41:59.716Z,75.25
2022-10-26T16:44:26.253Z,75.13
2022-10-26T16:46:52.780Z,74.53
2022-10-26T16:49:19.292Z,74.94
2022-10-26T16:51:45.947Z,75.44
2022-10-26T16:54:12.452Z,75.46
2022-10-26T16:56:39.040Z,74.46
2022-10-26T16:59:05.662Z,73.92
2022-10-26T17:01:32.291Z,74.35
2022-10-26T17:03:58.952Z,74.22
2022-10-26T17:06:25.666Z,75.02
2022-10-26T17:08:52.168Z,75.96
2022-10-26T17:11:21.056Z,75.77
2022-10-26T17:13:48.030Z,74.99
2022-10-26T17:16:17.554Z,75.29
2022-10-26T17:18:45.035Z,75.66
2022-10-26T17:21:13.193Z,75.66
2022-10-26T17:23:40.211Z,75.62
2022-10-26T17:26:09.808Z,75.14
2022-10-26T17:28:37.508Z,74.71
2022-10-26T17:31:10.188Z,74.51
2022-10-26T17:33:38.711Z,73.75
2022-10-26T17:36:07.262Z,74.85
2022-10-26T17:38:36.912Z,75.52
2022-10-26T17:41:06.071Z,74.87
2022-10-26T17:43:34.900Z,74.70
2022-10-26T17:46:03.824Z,74.20
2022-10-26T17:48:31.449Z,74.85
2022-10-26T17:51:02.009Z,74.58
2022-10-26T17:53:30.074Z,74.98
2022-10-26T17:56:10.766Z,74.89
2022-10-26T17:58:38.021Z,74.76
2022-10-26T18:01:06.901Z,75.11
2022-10-26T18:03:34.279Z,74.82
2022-10-26T18:06:01.502Z,75.04
2022-10-26T18:08:31.815Z,74.98
2022-10-26T18:10:58.488Z,76.87
2022-10-26T18:13:27.259Z,76.61
2022-10-26T18:15:53.788Z,75.91
2022-10-26T18:18:20.624Z,78.52
2022-10-26T18:20:47.110Z,78.03
2022-10-26T18:23:13.723Z,77.19
2022-10-26T18:25:40.263Z,77.32
2022-10-26T18:28:06.894Z,77.26
2022-10-26T18:30:33.909Z,77.01
2022-10-26T18:33:00.673Z,77.33
2022-10-26T18:35:27.179Z,77.83
2022-10-26T18:37:54.084Z,79.94
2022-10-26T18:40:21.059Z,80.29
2022-10-26T18:42:47.655Z,81.20
2022-10-26T18:45:14.506Z,80.80
2022-10-26T18:47:41.152Z,81.44
2022-10-26T18:50:08.007Z,82.11
2022-10-26T18:52:34.584Z,82.26
2022-10-26T18:55:01.134Z,81.47
2022-10-26T18:57:28.176Z,81.46
2022-10-26T18:59:55.192Z,81.19
2022-10-26T19:02:22.252Z,81.25
2022-10-26T19:04:48.763Z,80.49
2022-10-26T19:07:15.347Z,80.28
2022-10-26T19:09:42.245Z,80.73
2022-10-26T19:12:08.858Z,80.27
2022-10-26T19:14:35.362Z,80.03
2022-10-26T19:17:02.112Z,79.87
2022-10-26T19:19:28.615Z,80.17
2022-10-26T19:21:55.169Z,80.74
2022-10-26T19:24:23.312Z,80.04
2022-10-26T19:26:50.824Z,79.94
2022-10-26T19:29:18.295Z,79.60
2022-10-26T19:31:46.389Z,79.54
2022-10-26T19:34:14.514Z,79.82
2022-10-26T19:36:41.297Z,80.19
2022-10-26T19:39:08.148Z,80.26
2022-10-26T19:41:34.712Z,80.01
2022-10-26T19:44:01.410Z,80.05
2022-10-26T19:46:29.379Z,79.45
2022-10-26T19:48:58.037Z,79.34
2022-10-26T19:51:26.625Z,79.15
2022-10-26T19:53:53.450Z,79.64
2022-10-26T19:56:20.380Z,80.04
2022-10-26T19:58:47.709Z,79.92
2022-10-26T20:01:15.804Z,80.88
2022-10-26T20:03:42.586Z,81.75
2022-10-26T20:06:10.582Z,81.15
2022-10-26T20:08:38.160Z,80.57
2022-10-26T20:11:08.968Z,80.46
2022-10-26T20:13:39.514Z,79.15
2022-10-26T20:16:07.211Z,77.89
2022-10-26T20:18:34.464Z,77.73
2022-10-26T20:21:01.030Z,77.17
2022-10-26T20:23:27.598Z,78.34
2022-10-26T20:25:54.121Z,78.80
2022-10-26T20:28:20.832Z,79.34
2022-10-26T20:30:48.925Z,78.91
2022-10-26T20:33:15.766Z,78.86
2022-10-26T20:35:42.695Z,78.86
2022-10-26T20:38:17.588Z,79.28
2022-10-26T20:40:45.057Z,79.19
2022-10-26T20:43:16.903Z,79.97
2022-10-26T20:45:43.769Z,79.56
2022-10-26T20:48:12.092Z,79.47
2022-10-26T20:50:40.544Z,79.18
2022-10-26T20:53:25.586Z,79.21
2022-10-26T20:55:54.910Z,79.61
2022-10-26T20:58:38.681Z,79.86
2022-10-26T21:01:27.107Z,79.97
2022-10-26T21:03:55.328Z,80.19
2022-10-26T21:06:22.519Z,80.12
2022-10-26T21:08:50.317Z,80.08
2022-10-26T21:11:17.914Z,79.95
2022-10-26T21:13:46.399Z,80.10
2022-10-26T21:16:16.951Z,80.07
2022-10-26T21:18:43.773Z,79.84
2022-10-26T21:21:10.396Z,79.89
2022-10-26T21:23:39.406Z,79.91
2022-10-26T21:26:06.815Z,80.09
2022-10-26T21:28:38.770Z,79.98
2022-10-26T21:31:07.459Z,79.82
2022-10-26T21:33:34.237Z,79.77
2022-10-26T21:36:09.276Z,79.64
2022-10-26T21:38:35.791Z,79.67
2022-10-26T21:41:04.565Z,79.50
2022-10-26T21:43:32.829Z,79.46
2022-10-26T21:46:03.562Z,78.88
2022-10-26T21:48:31.782Z,78.70
2022-10-26T21:50:58.399Z,78.28
2022-10-26T21:53:26.950Z,78.03
2022-10-26T21:56:05.334Z,78.24
2022-10-26T21:58:32.460Z,77.76
2022-10-26T22:01:06.154Z,77.38
2022-10-26T22:03:33.325Z,76.96
2022-10-26T22:06:00.089Z,76.59
2022-10-26T22:08:27.253Z,76.32
2022-10-26T22:10:53.814Z,76.62
2022-10-26T22:13:23.548Z,79.59
2022-10-26T22:16:00.529Z,80.97
2022-10-26T22:18:27.070Z,78.05
2022-10-26T22:20:59.875Z,79.63
2022-10-26T22:23:26.569Z,77.68
2022-10-26T22:25:53.079Z,78.02
2022-10-26T22:28:19.920Z,78.22
2022-10-26T22:30:46.471Z,78.01
2022-10-26T22:33:13.483Z,76.42
2022-10-26T22:35:39.982Z,76.24
2022-10-26T22:38:08.903Z,76.48
2022-10-26T22:40:35.396Z,76.32
2022-10-26T22:43:02.045Z,76.12
2022-10-26T22:45:28.716Z,75.91
2022-10-26T22:47:55.331Z,76.17
2022-10-26T22:50:21.862Z,76.16
2022-10-26T22:52:48.609Z,75.90
2022-10-26T22:55:15.343Z,75.96
2022-10-26T22:57:41.928Z,75.95
2022-10-26T23:00:09.124Z,76.01
2022-10-26T23:02:35.663Z,75.79
2022-10-26T23:05:02.173Z,76.52
2022-10-26T23:07:29.360Z,76.46
2022-10-26T23:09:56.104Z,76.44
2022-10-26T23:12:22.748Z,77.01
2022-10-26T23:14:49.332Z,76.51
2022-10-26T23:17:16.000Z,76.04
2022-10-26T23:19:42.486Z,75.69
2022-10-26T23:22:09.159Z,76.07
2022-10-26T23:24:35.669Z,76.02
2022-10-26T23:27:02.256Z,76.58
2022-10-26T23:29:28.798Z,76.17
2022-10-26T23:31:55.450Z,76.59
2022-10-26T23:34:21.945Z,76.56
2022-10-26T23:36:48.540Z,76.84
2022-10-26T23:39:15.049Z,76.83
2022-10-26T23:41:41.595Z,77.13
2022-10-26T23:44:08.160Z,77.68
2022-10-26T23:46:34.843Z,78.21
2022-10-26T23:49:01.467Z,79.35
2022-10-26T23:51:28.295Z,80.42
2022-10-26T23:53:54.809Z,81.31
2022-10-26T23:56:21.368Z,81.79
2022-10-26T23:58:50.876Z,82.91
